Aarschot, Belgium
Current Conditions -  °F | °C
As of 6:25 AM on Sunday 26 Oct 2014 (Local Time) from EBDT Reporting Station
Overcast Overcast  
Wind Chill: 11°   Ceiling: 4000
Heat Index: 11°   Visibility: 6mi
Dew Point: 10°   Wind: 5mph
Humidity: 94%   Direction: 200°SSW
Pressure: 30.24"   Gusts: NA
Location:  50.99°N, 4.84°E
Report Text: EBDT 260425Z AUTO 20004KT 9999 OVC040/// 11/10 Q1024 BLU
Loading
Personal Weather Stations






























Interactive Weather Map
Tropical Storm Tracking
New forecast layout! Learn more

10-Day Weather Forecast

Advertisements
Track Severe Weather on mobile